Sarita Si — MSPM8 — position and weather

sailwx.info

Track history (hours):
 
Tides and Currents Weather Stations Pressure Air Temp Water Temp Dewpoint Dewpoint Depression Visibility Wind Speed Wind Dir Waves Ship Positions

Sarita Si

Last reported at 2017-Nov-23 07:57 UTC. Time now 2018-Jan-23 13:39 UTC.
Position N 37°40' E 023°22'.
Warning: this ship's position is months out of date.

Length 40 m; draft 2.5 m.

Type: Pleasure craft. MMSI: 235867000.

Date/timePositionNaut miles runAvg speedWind from/ knotsBaromVisibWave heightAir tempDewpointWater temp
2017-Nov-23 07:57N 37°40' E 023°22'1110.7
2017-Nov-23 06:58N 37°48' E 023°13'511.5
2017-Nov-23 06:30N 37°52' E 023°09'611.6
2017-Nov-23 06:01N 37°54' E 023°03'4 8.0
2017-Nov-23 05:27N 37°57' E 022°58'3 6.8
2017-Nov-23 05:00N 37°58' E 022°54'  
2017-Nov-18 08:13N 38°02' E 015°31'212.0
2017-Nov-18 08:01N 38°04' E 015°33'611.5
2017-Nov-18 07:30N 38°10' E 015°35'510.3
2017-Nov-18 07:00N 38°15' E 015°37'510.8
2017-Nov-18 06:30N 38°18' E 015°42'610.9
2017-Nov-18 06:00N 38°23' E 015°38'711.8
2017-Nov-18 05:26N 38°27' E 015°32'  
Track history (hours):
 
Tides and Currents Weather Stations Pressure Air Temp Water Temp Dewpoint Dewpoint Depression Visibility Wind Speed Wind Dir Waves Ship Positions

Sarita Si

Last reported at 2017-Nov-23 07:57 UTC. Time now 2018-Jan-23 13:39 UTC.
Position N 37°40' E 023°22'.
Warning: this ship's position is months out of date.

Length 40 m; draft 2.5 m.

Type: Pleasure craft. MMSI: 235867000.

Date/timePositionNaut miles runAvg speedWind from/ knotsBaromVisibWave heightAir tempDewpointWater temp
2017-Nov-23 07:57N 37°40' E 023°22'1110.7
2017-Nov-23 06:58N 37°48' E 023°13'511.5
2017-Nov-23 06:30N 37°52' E 023°09'611.6
2017-Nov-23 06:01N 37°54' E 023°03'4 8.0
2017-Nov-23 05:27N 37°57' E 022°58'3 6.8
2017-Nov-23 05:00N 37°58' E 022°54'  
2017-Nov-18 08:13N 38°02' E 015°31'212.0
2017-Nov-18 08:01N 38°04' E 015°33'611.5
2017-Nov-18 07:30N 38°10' E 015°35'510.3
2017-Nov-18 07:00N 38°15' E 015°37'510.8
2017-Nov-18 06:30N 38°18' E 015°42'610.9
2017-Nov-18 06:00N 38°23' E 015°38'711.8
2017-Nov-18 05:26N 38°27' E 015°32'  

Dump ship's entire track history